Time;durP1;ratioP1;P1;durP2;ratioP2;P2;SDS_P1;SDS_P2;PMS_P1;PMS_P2;Temp;Humidity;BMP_temperature;BMP_pressure;BME280_temperature;BME280_humidity;BME280_pressure;Samples;Min_cycle;Max_cycle;Signal;HPM_P1;HPM_P2
2021/04/14 00:00:20;;;;;;;9.35;5.28;;;2.90;99.90;;;;;;5003606;28;20064;-82
2021/04/14 00:02:47;;;;;;;11.35;5.90;;;2.90;99.90;;;;;;5021296;28;20052;-82
2021/04/14 00:05:18;;;;;;;10.60;5.35;;;2.80;99.90;;;;;;5011926;28;20057;-82
2021/04/14 00:07:45;;;;;;;9.95;5.88;;;2.80;99.90;;;;;;5019974;28;20488;-82
2021/04/14 00:10:12;;;;;;;10.02;6.30;;;2.80;99.90;;;;;;5002230;28;20060;-82
2021/04/14 00:12:39;;;;;;;12.60;5.97;;;2.70;99.90;;;;;;5007810;28;20050;-82
2021/04/14 00:15:13;;;;;;;12.80;5.72;;;2.70;99.90;;;;;;5003737;28;20069;-82
2021/04/14 00:17:40;;;;;;;9.18;5.20;;;2.70;99.90;;;;;;4998910;28;20131;-83
2021/04/14 00:20:09;;;;;;;9.48;5.53;;;2.70;99.90;;;;;;5001479;28;20052;-83
2021/04/14 00:22:41;;;;;;;10.27;5.82;;;2.70;99.90;;;;;;5004202;28;20084;-82
2021/04/14 00:25:10;;;;;;;13.02;5.97;;;2.70;99.90;;;;;;5021629;28;20058;-83
2021/04/14 00:27:37;;;;;;;9.20;5.88;;;2.80;99.90;;;;;;5005018;28;20595;-82
2021/04/14 00:30:08;;;;;;;13.88;6.57;;;2.80;99.90;;;;;;5017482;28;20074;-83
2021/04/14 00:32:36;;;;;;;8.63;5.30;;;2.80;99.90;;;;;;5007239;28;20046;-81
2021/04/14 00:35:03;;;;;;;10.70;6.22;;;2.80;99.90;;;;;;5017387;28;20101;-81
2021/04/14 00:37:29;;;;;;;14.85;5.78;;;2.80;99.90;;;;;;5005265;28;20089;-82
2021/04/14 00:39:58;;;;;;;11.65;6.03;;;2.90;99.90;;;;;;5004339;28;20054;-82
2021/04/14 00:42:24;;;;;;;13.50;5.85;;;2.90;99.90;;;;;;5001802;28;20045;-82
2021/04/14 00:44:51;;;;;;;8.18;5.65;;;3.00;99.90;;;;;;5005533;28;20050;-81
2021/04/14 00:47:17;;;;;;;10.85;5.82;;;3.00;99.90;;;;;;5001068;28;20524;-81
2021/04/14 00:49:46;;;;;;;12.07;6.82;;;3.00;99.90;;;;;;5006369;28;20300;-82
2021/04/14 00:52:13;;;;;;;16.13;6.22;;;3.00;99.90;;;;;;5005235;28;20076;-82
2021/04/14 00:54:39;;;;;;;15.23;6.45;;;3.00;99.90;;;;;;5016503;28;20054;-81
2021/04/14 00:57:06;;;;;;;11.93;7.13;;;3.00;99.90;;;;;;5008103;28;20060;-81
2021/04/14 00:59:32;;;;;;;13.55;7.28;;;3.00;99.90;;;;;;4997150;28;20105;-81
2021/04/14 01:01:59;;;;;;;10.45;6.28;;;3.00;99.90;;;;;;4999673;28;20461;-80
2021/04/14 01:04:25;;;;;;;10.80;5.97;;;3.00;99.90;;;;;;5006542;28;20050;-80
2021/04/14 01:06:54;;;;;;;10.73;6.78;;;3.00;99.90;;;;;;5016193;28;20062;-81
2021/04/14 01:09:20;;;;;;;12.15;6.85;;;3.10;99.90;;;;;;5003879;28;20050;-81
2021/04/14 01:11:46;;;;;;;13.88;6.82;;;3.00;99.90;;;;;;5005615;28;20054;-81
2021/04/14 01:14:12;;;;;;;16.35;6.85;;;3.00;99.90;;;;;;5019345;28;20119;-81
2021/04/14 01:16:39;;;;;;;11.43;7.13;;;3.00;99.90;;;;;;5005949;28;20099;-82
2021/04/14 01:19:07;;;;;;;13.85;7.47;;;2.90;99.90;;;;;;5000722;28;20053;-80
2021/04/14 01:21:39;;;;;;;19.80;8.27;;;2.80;99.90;;;;;;5005431;28;20128;-80
2021/04/14 01:24:07;;;;;;;18.42;7.65;;;2.80;99.90;;;;;;5008063;28;20073;-81
2021/04/14 01:26:33;;;;;;;14.23;8.50;;;2.70;99.90;;;;;;5004165;28;20064;-82
2021/04/14 01:29:00;;;;;;;13.95;8.05;;;2.60;99.90;;;;;;5020119;28;20056;-81
2021/04/14 01:31:33;;;;;;;16.90;7.82;;;2.60;99.90;;;;;;5010801;28;20061;-81
2021/04/14 01:34:20;;;;;;;21.73;9.00;;;2.60;99.90;;;;;;5020905;28;20116;-81
2021/04/14 01:36:47;;;;;;;13.38;8.68;;;2.60;99.90;;;;;;5003611;28;20288;-81
2021/04/14 01:39:14;;;;;;;21.02;8.75;;;2.60;99.90;;;;;;5020990;28;20140;-82
2021/04/14 01:41:42;;;;;;;18.77;9.20;;;2.60;99.90;;;;;;5017538;28;20963;-80
2021/04/14 01:44:10;;;;;;;17.48;9.27;;;2.60;99.90;;;;;;4998780;28;20050;-81
2021/04/14 01:46:40;;;;;;;17.30;9.05;;;2.60;99.90;;;;;;5015680;28;20061;-82
2021/04/14 01:49:09;;;;;;;16.50;9.35;;;2.60;99.90;;;;;;5016149;28;20141;-82
2021/04/14 01:51:35;;;;;;;18.48;8.90;;;2.60;99.90;;;;;;5004770;28;20081;-85
2021/04/14 01:54:03;;;;;;;15.45;8.57;;;2.60;99.90;;;;;;5019047;28;20500;-81
2021/04/14 01:56:30;;;;;;;17.95;8.80;;;2.60;99.90;;;;;;5001011;28;20065;-81
2021/04/14 01:58:56;;;;;;;18.10;8.82;;;2.50;99.90;;;;;;4998863;28;20054;-81
2021/04/14 02:01:22;;;;;;;23.02;10.07;;;2.50;99.90;;;;;;5015711;28;20054;-81
2021/04/14 02:03:49;;;;;;;16.95;9.43;;;2.50;99.90;;;;;;5002961;28;20050;-81
2021/04/14 02:06:16;;;;;;;17.73;9.55;;;2.50;99.90;;;;;;5020913;28;20054;-81
2021/04/14 02:08:44;;;;;;;13.90;8.10;;;2.60;99.90;;;;;;5004967;28;20117;-81
2021/04/14 02:11:12;;;;;;;16.08;9.23;;;2.50;99.90;;;;;;5005238;28;20145;-81
2021/04/14 02:13:41;;;;;;;14.55;8.90;;;2.60;99.90;;;;;;5005563;28;20061;-81
2021/04/14 02:16:15;;;;;;;16.98;9.00;;;2.60;99.90;;;;;;5018802;28;20480;-81
2021/04/14 02:18:42;;;;;;;17.63;8.82;;;2.50;99.90;;;;;;5019353;28;20053;-81
2021/04/14 02:21:08;;;;;;;17.70;10.65;;;2.60;99.90;;;;;;5006296;28;20141;-81
2021/04/14 02:23:41;;;;;;;13.68;8.93;;;2.50;99.90;;;;;;5024549;28;20135;-81
2021/04/14 02:26:13;;;;;;;22.20;11.10;;;2.50;99.90;;;;;;5008161;28;20058;-82
2021/04/14 02:28:39;;;;;;;15.45;10.23;;;2.50;99.90;;;;;;4987859;28;20065;-81
2021/04/14 02:31:07;;;;;;;19.80;9.77;;;2.50;99.90;;;;;;5008044;28;20058;-81
2021/04/14 02:33:34;;;;;;;20.58;10.68;;;2.40;99.90;;;;;;5015671;28;20049;-82
2021/04/14 02:36:00;;;;;;;19.67;10.70;;;2.30;99.90;;;;;;5006795;28;20053;-81
2021/04/14 02:38:27;;;;;;;21.90;10.63;;;2.30;99.90;;;;;;5007459;28;20108;-81
2021/04/14 02:40:53;;;;;;;17.35;9.90;;;2.20;99.90;;;;;;5025422;28;20485;-82
2021/04/14 02:43:21;;;;;;;15.68;10.00;;;2.20;99.90;;;;;;5012376;28;20054;-82
2021/04/14 02:45:48;;;;;;;14.52;9.15;;;2.20;99.90;;;;;;5027833;28;20470;-82
2021/04/14 02:48:15;;;;;;;17.33;10.00;;;2.20;99.90;;;;;;5025144;28;20089;-82
2021/04/14 02:50:42;;;;;;;16.77;10.07;;;2.20;99.90;;;;;;5011624;28;20066;-82
2021/04/14 02:53:09;;;;;;;16.88;9.90;;;2.20;99.90;;;;;;5011917;28;20109;-82
2021/04/14 02:55:36;;;;;;;16.23;9.88;;;2.10;99.90;;;;;;5014512;28;20057;-81
2021/04/14 02:58:03;;;;;;;16.67;9.57;;;2.10;99.90;;;;;;5022452;28;20160;-82
2021/04/14 03:00:30;;;;;;;13.30;9.57;;;2.10;99.90;;;;;;5024391;28;20045;-81
2021/04/14 03:02:57;;;;;;;16.50;9.00;;;2.00;99.90;;;;;;5024155;28;20050;-81
2021/04/14 03:05:29;;;;;;;17.77;10.38;;;2.00;99.90;;;;;;5022038;28;20073;-81
2021/04/14 03:07:56;;;;;;;17.25;9.43;;;2.00;99.90;;;;;;5023976;28;20030;-81
2021/04/14 03:10:23;;;;;;;17.67;9.80;;;1.90;99.90;;;;;;5022806;28;20223;-82
2021/04/14 03:12:50;;;;;;;14.57;9.70;;;1.90;99.90;;;;;;5021657;28;20157;-81
2021/04/14 03:15:28;;;;;;;17.15;10.50;;;1.90;99.90;;;;;;5036875;28;20091;-81
2021/04/14 03:17:55;;;;;;;18.30;9.48;;;1.90;99.90;;;;;;5020560;28;20042;-81
2021/04/14 03:20:21;;;;;;;17.17;9.65;;;1.90;99.90;;;;;;5018563;28;20223;-81
2021/04/14 03:22:50;;;;;;;13.32;9.20;;;1.90;99.90;;;;;;5020970;28;20077;-81
2021/04/14 03:25:18;;;;;;;16.00;9.80;;;1.80;99.90;;;;;;5021566;28;20576;-81
2021/04/14 03:27:44;;;;;;;13.90;8.98;;;1.80;99.90;;;;;;5012147;28;20109;-81
2021/04/14 03:30:11;;;;;;;19.15;9.60;;;1.80;99.90;;;;;;5012591;28;20160;-83
2021/04/14 03:32:38;;;;;;;19.42;9.48;;;1.70;99.90;;;;;;5008099;28;20501;-81
2021/04/14 03:35:05;;;;;;;18.23;8.88;;;1.70;99.90;;;;;;5008704;28;20141;-82
2021/04/14 03:37:32;;;;;;;19.40;9.77;;;1.70;99.90;;;;;;5007789;28;20730;-81
2021/04/14 03:39:58;;;;;;;15.70;9.18;;;1.60;99.90;;;;;;5008903;28;20076;-82
2021/04/14 03:42:25;;;;;;;17.45;9.50;;;1.60;99.90;;;;;;4998858;28;20078;-82
2021/04/14 03:44:53;;;;;;;17.85;10.40;;;1.50;99.90;;;;;;5013871;28;20042;-82
2021/04/14 03:47:21;;;;;;;19.17;10.80;;;1.50;99.90;;;;;;5003079;28;20092;-82
2021/04/14 03:49:50;;;;;;;15.13;9.85;;;1.40;99.90;;;;;;5002481;28;20050;-82
2021/04/14 03:52:16;;;;;;;22.55;10.00;;;1.40;99.90;;;;;;5022992;28;20137;-80
2021/04/14 03:54:43;;;;;;;18.60;10.38;;;1.40;99.90;;;;;;5008897;28;20058;-80
2021/04/14 03:57:10;;;;;;;22.25;10.70;;;1.30;99.90;;;;;;5005981;28;20079;-81
2021/04/14 03:59:36;;;;;;;20.65;10.82;;;1.20;99.90;;;;;;5001230;28;20086;-81
2021/04/14 04:02:03;;;;;;;19.75;10.63;;;1.20;99.90;;;;;;5004872;28;20045;-80
2021/04/14 04:04:29;;;;;;;19.75;10.13;;;1.20;99.90;;;;;;5005219;28;20058;-81
2021/04/14 04:06:55;;;;;;;22.17;11.23;;;1.10;99.90;;;;;;5021626;28;20148;-81
2021/04/14 04:09:22;;;;;;;24.00;10.85;;;1.10;99.90;;;;;;5020546;28;20049;-81
2021/04/14 04:11:48;;;;;;;18.90;10.70;;;1.10;99.90;;;;;;5007807;28;20089;-81
2021/04/14 04:14:14;;;;;;;20.42;10.80;;;1.00;99.90;;;;;;4999143;28;20113;-80
2021/04/14 04:16:41;;;;;;;21.05;12.50;;;1.00;99.90;;;;;;5002701;28;20049;-81
2021/04/14 04:19:07;;;;;;;19.98;11.90;;;1.00;99.90;;;;;;5020908;28;20116;-81
2021/04/14 04:21:34;;;;;;;24.55;13.15;;;0.90;99.90;;;;;;5021682;28;20048;-81
2021/04/14 04:24:01;;;;;;;24.27;11.70;;;0.90;99.90;;;;;;5004969;28;20050;-82
2021/04/14 04:26:28;;;;;;;35.67;12.27;;;0.90;99.90;;;;;;5000247;28;20109;-81
2021/04/14 04:28:54;;;;;;;20.20;11.30;;;0.90;99.90;;;;;;5020509;28;20053;-82
2021/04/14 04:31:20;;;;;;;20.50;11.27;;;0.90;99.90;;;;;;5005989;28;20061;-82
2021/04/14 04:33:47;;;;;;;19.95;11.70;;;0.80;99.90;;;;;;5003103;28;20057;-81
2021/04/14 04:36:13;;;;;;;23.38;11.98;;;0.80;99.90;;;;;;5021905;28;20486;-82
2021/04/14 04:38:39;;;;;;;21.70;11.60;;;0.80;99.90;;;;;;5002361;28;20137;-82
2021/04/14 04:41:06;;;;;;;19.13;10.75;;;0.80;99.90;;;;;;5021211;28;20064;-81
2021/04/14 04:43:32;;;;;;;16.92;10.93;;;0.70;99.90;;;;;;5003655;28;20489;-81
2021/04/14 04:45:58;;;;;;;18.92;10.88;;;0.70;99.90;;;;;;5003455;28;20076;-82
2021/04/14 04:48:25;;;;;;;19.83;10.77;;;0.70;99.90;;;;;;4999477;28;20540;-80
2021/04/14 04:50:53;;;;;;;23.58;10.65;;;0.70;99.90;;;;;;5015929;28;20066;-81
2021/04/14 04:53:23;;;;;;;24.40;12.25;;;0.70;99.90;;;;;;5019902;28;20053;-81
2021/04/14 04:55:51;;;;;;;20.88;11.23;;;0.70;99.90;;;;;;5020199;28;20058;-81
2021/04/14 04:58:18;;;;;;;26.02;12.00;;;0.70;99.90;;;;;;5002442;28;20060;-81
2021/04/14 05:00:47;;;;;;;18.10;11.20;;;0.70;99.90;;;;;;5018456;28;20054;-81
2021/04/14 05:03:15;;;;;;;18.63;10.35;;;0.70;99.90;;;;;;5013907;28;20058;-82
2021/04/14 05:05:42;;;;;;;19.13;11.40;;;0.80;99.90;;;;;;5021642;28;20053;-82
2021/04/14 05:08:11;;;;;;;15.68;10.25;;;0.80;99.90;;;;;;5006052;28;20107;-82
2021/04/14 05:10:37;;;;;;;24.85;11.77;;;0.80;99.90;;;;;;5008321;28;20474;-81
2021/04/14 05:13:05;;;;;;;22.02;10.98;;;0.80;99.90;;;;;;5004061;28;20038;-82
2021/04/14 05:15:35;;;;;;;18.10;10.80;;;0.90;99.90;;;;;;5018539;28;20061;-82
2021/04/14 05:18:02;;;;;;;17.05;10.00;;;0.90;99.90;;;;;;5002793;28;20704;-81
2021/04/14 05:20:29;;;;;;;21.02;11.32;;;0.90;99.90;;;;;;5004665;28;20085;-82
2021/04/14 05:22:55;;;;;;;22.83;11.00;;;1.00;99.90;;;;;;4995591;28;20500;-82
2021/04/14 05:25:25;;;;;;;16.35;10.93;;;1.00;99.90;;;;;;5000079;28;20052;-82
2021/04/14 05:27:54;;;;;;;21.25;12.05;;;1.10;99.90;;;;;;5018283;28;20401;-82
2021/04/14 05:30:21;;;;;;;18.83;11.15;;;1.10;99.90;;;;;;5017277;28;20139;-82
2021/04/14 05:32:49;;;;;;;22.35;11.95;;;1.20;99.90;;;;;;5003780;28;20125;-82
2021/04/14 05:35:17;;;;;;;22.65;13.18;;;1.20;99.90;;;;;;5000138;28;20125;-82
2021/04/14 05:37:43;;;;;;;34.70;16.20;;;1.20;99.90;;;;;;5000608;28;20053;-82
2021/04/14 05:40:10;;;;;;;22.98;13.00;;;1.30;99.90;;;;;;4996844;28;20070;-81
2021/04/14 05:42:45;;;;;;;24.80;13.30;;;1.30;99.90;;;;;;5004223;28;20058;-81
2021/04/14 05:45:15;;;;;;;20.58;11.73;;;1.30;99.90;;;;;;4999737;28;20045;-81
2021/04/14 05:47:42;;;;;;;27.77;12.32;;;1.40;99.90;;;;;;5012754;28;20131;-81
2021/04/14 05:50:12;;;;;;;28.38;12.70;;;1.50;99.90;;;;;;5014127;28;20145;-82
2021/04/14 05:52:38;;;;;;;22.15;11.77;;;1.60;99.90;;;;;;4997430;28;20069;-81
2021/04/14 05:55:05;;;;;;;22.08;12.77;;;1.70;99.90;;;;;;4999382;28;20611;-81
2021/04/14 05:57:31;;;;;;;23.20;14.43;;;1.70;99.90;;;;;;5005146;28;20054;-81
2021/04/14 05:59:57;;;;;;;20.02;11.80;;;1.90;99.90;;;;;;5023590;28;20049;-82
2021/04/14 06:02:28;;;;;;;23.25;12.30;;;2.00;99.90;;;;;;5007193;28;20464;-82
2021/04/14 06:04:54;;;;;;;18.15;11.95;;;2.30;99.90;;;;;;5012385;28;20136;-83
2021/04/14 06:07:21;;;;;;;18.92;10.55;;;2.60;99.90;;;;;;5013887;28;20059;-82
2021/04/14 06:09:48;;;;;;;17.42;9.82;;;3.00;99.90;;;;;;4990635;28;20137;-82
2021/04/14 06:12:14;;;;;;;16.98;10.35;;;3.40;99.90;;;;;;5000594;28;20058;-82
2021/04/14 06:14:40;;;;;;;14.50;9.77;;;3.80;99.90;;;;;;5016233;28;20104;-82
2021/04/14 06:17:07;;;;;;;18.73;10.48;;;4.20;99.90;;;;;;5003984;28;20057;-82
2021/04/14 06:19:35;;;;;;;16.30;9.95;;;4.60;99.90;;;;;;5019858;28;20058;-82
2021/04/14 06:22:03;;;;;;;11.38;8.32;;;4.90;99.90;;;;;;5003631;28;20045;-82
2021/04/14 06:24:30;;;;;;;12.88;9.63;;;5.20;99.90;;;;;;5017947;28;20108;-82
2021/04/14 06:27:00;;;;;;;15.85;9.65;;;5.50;99.90;;;;;;5017963;28;20046;-82
2021/04/14 06:29:29;;;;;;;13.15;9.57;;;5.90;99.90;;;;;;5001780;28;20115;-82
2021/04/14 06:31:56;;;;;;;13.05;9.10;;;6.20;99.90;;;;;;5017100;28;20060;-82
2021/04/14 06:34:24;;;;;;;12.57;8.48;;;6.50;99.90;;;;;;5018373;28;20069;-82
2021/04/14 06:36:54;;;;;;;13.15;9.43;;;6.80;99.90;;;;;;5002076;28;24119;-83
2021/04/14 06:39:29;;;;;;;13.00;9.18;;;7.20;99.90;;;;;;4998033;28;20064;-83
2021/04/14 06:42:24;;;;;;;12.82;8.93;;;7.50;99.90;;;;;;5022223;28;20049;-83
2021/04/14 06:44:51;;;;;;;14.80;8.68;;;7.80;99.90;;;;;;5022023;28;20132;-82
2021/04/14 06:47:51;;;;;;;13.27;9.07;;;8.10;99.90;;;;;;5023312;28;20149;-82
2021/04/14 06:50:54;;;;;;;12.02;7.15;;;8.40;99.90;;;;;;5019149;28;20054;-84
2021/04/14 06:53:30;;;;;;;8.40;5.40;;;8.80;99.90;;;;;;5001849;28;20062;-83
2021/04/14 06:56:02;;;;;;;9.43;4.97;;;8.70;99.90;;;;;;5007582;28;20516;-83
2021/04/14 06:58:41;;;;;;;6.40;3.72;;;8.40;99.90;;;;;;4999517;28;20068;-83
2021/04/14 07:01:12;;;;;;;9.57;4.00;;;7.90;99.90;;;;;;5017207;28;20082;-83
2021/04/14 07:04:08;;;;;;;5.22;2.60;;;7.60;99.90;;;;;;5006264;28;20173;-82
2021/04/14 07:06:41;;;;;;;5.50;2.20;;;7.50;99.90;;;;;;4989552;28;20046;-82
2021/04/14 07:09:15;;;;;;;3.78;2.33;;;7.40;99.90;;;;;;5006764;28;20038;-82
2021/04/14 07:11:43;;;;;;;5.55;1.98;;;7.40;99.90;;;;;;5005714;28;20603;-82
2021/04/14 07:14:11;;;;;;;3.80;2.67;;;7.40;99.90;;;;;;4998700;28;20420;-82
2021/04/14 07:16:46;;;;;;;3.95;1.77;;;7.50;99.90;;;;;;5003644;28;20056;-83
2021/04/14 07:19:29;;;;;;;3.75;2.38;;;7.50;99.90;;;;;;5019180;28;20141;-82
2021/04/14 07:22:05;;;;;;;3.63;2.53;;;7.60;99.90;;;;;;5000361;28;20114;-82
2021/04/14 07:24:42;;;;;;;4.80;1.90;;;7.70;99.90;;;;;;5022975;28;20473;-82
2021/04/14 07:27:30;;;;;;;7.45;1.90;;;7.70;99.90;;;;;;5010156;28;20654;-82
2021/04/14 07:30:06;;;;;;;1.88;1.55;;;7.70;99.90;;;;;;4999855;28;20109;-82
2021/04/14 07:32:58;;;;;;;3.45;1.73;;;7.80;99.90;;;;;;5022464;28;20114;-82
2021/04/14 07:35:39;;;;;;;3.83;1.17;;;7.80;99.90;;;;;;5017989;28;20159;-82
2021/04/14 07:38:18;;;;;;;4.53;1.60;;;7.90;99.90;;;;;;5002179;28;20065;-82
2021/04/14 07:41:19;;;;;;;3.65;1.58;;;8.00;99.90;;;;;;5001285;28;20477;-82
2021/04/14 07:44:04;;;;;;;3.65;1.48;;;8.00;99.90;;;;;;4998178;28;20104;-82
2021/04/14 07:46:34;;;;;;;3.33;1.00;;;8.10;99.90;;;;;;5020517;28;20509;-82
2021/04/14 07:49:01;;;;;;;2.95;0.88;;;8.20;99.90;;;;;;5020925;28;20125;-82
2021/04/14 07:51:29;;;;;;;3.90;0.50;;;8.10;99.90;;;;;;5012962;28;20536;-83
2021/04/14 07:54:14;;;;;;;4.30;0.90;;;8.30;99.90;;;;;;5007188;28;20113;-82
2021/04/14 07:56:47;;;;;;;6.13;1.08;;;8.40;99.90;;;;;;5024192;28;20549;-82
2021/04/14 07:59:32;;;;;;;3.47;0.73;;;8.50;99.90;;;;;;5022535;28;20042;-82
2021/04/14 08:02:05;;;;;;;4.47;0.73;;;8.60;99.90;;;;;;5021865;28;20108;-82
2021/04/14 08:04:38;;;;;;;3.72;1.13;;;8.80;99.90;;;;;;5024721;28;20073;-82
2021/04/14 08:07:17;;;;;;;6.53;0.60;;;8.90;99.90;;;;;;5022376;28;20073;-83
2021/04/14 08:09:55;;;;;;;6.43;0.73;;;9.20;99.90;;;;;;5008402;28;20312;-82
2021/04/14 08:12:52;;;;;;;4.47;1.00;;;9.20;99.30;;;;;;5008477;28;20052;-83
2021/04/14 08:15:27;;;;;;;9.10;1.10;;;9.00;99.70;;;;;;5002851;28;20064;-82
2021/04/14 08:18:04;;;;;;;5.40;0.73;;;9.00;99.90;;;;;;4997671;28;20052;-83
2021/04/14 08:20:33;;;;;;;1.42;0.60;;;9.10;98.30;;;;;;5017576;28;20049;-82
2021/04/14 08:23:16;;;;;;;4.43;0.95;;;9.10;98.20;;;;;;5014863;28;20193;-82
2021/04/14 08:26:07;;;;;;;4.97;0.70;;;8.90;99.60;;;;;;5021172;28;20049;-83
2021/04/14 08:28:44;;;;;;;4.68;0.60;;;9.10;99.90;;;;;;5020463;28;20045;-82
2021/04/14 08:31:18;;;;;;;3.17;0.57;;;9.30;98.00;;;;;;5004173;28;20053;-83
2021/04/14 08:33:44;;;;;;;1.48;0.50;;;9.30;96.70;;;;;;5003833;28;20416;-83
2021/04/14 08:36:22;;;;;;;3.15;0.40;;;9.10;95.80;;;;;;5019207;28;20133;-82
2021/04/14 08:38:48;;;;;;;5.63;0.50;;;9.00;96.70;;;;;;5020825;28;20565;-83
2021/04/14 08:41:26;;;;;;;5.07;0.60;;;9.20;94.70;;;;;;5011026;28;20050;-82
2021/04/14 08:43:53;;;;;;;1.08;0.30;;;9.40;94.60;;;;;;5021758;28;20149;-82
2021/04/14 08:46:38;;;;;;;3.65;0.50;;;9.50;92.30;;;;;;5005225;28;20050;-82
2021/04/14 08:49:16;;;;;;;3.10;1.23;;;9.50;90.10;;;;;;5004863;28;20037;-82
2021/04/14 08:51:46;;;;;;;2.08;0.70;;;9.50;90.10;;;;;;5003408;28;20038;-82
2021/04/14 08:54:23;;;;;;;1.92;0.57;;;9.70;88.80;;;;;;5018961;28;20046;-83
2021/04/14 08:56:50;;;;;;;2.65;0.73;;;9.80;88.10;;;;;;5006083;28;20049;-83
2021/04/14 08:59:17;;;;;;;3.47;0.57;;;9.80;90.20;;;;;;5019290;28;20052;-83
2021/04/14 09:01:43;;;;;;;2.38;0.30;;;9.90;90.70;;;;;;5004541;28;20049;-83
2021/04/14 09:04:11;;;;;;;4.35;0.95;;;10.10;88.90;;;;;;5013058;28;20054;-82
2021/04/14 09:06:40;;;;;;;1.48;0.50;;;10.30;82.90;;;;;;5018543;28;20061;-82
2021/04/14 09:09:15;;;;;;;3.25;0.50;;;10.50;84.20;;;;;;5005000;28;20413;-82
2021/04/14 09:11:43;;;;;;;4.47;0.63;;;10.50;80.20;;;;;;5002093;28;20073;-82
2021/04/14 09:14:26;;;;;;;1.67;0.40;;;10.50;80.60;;;;;;5004097;28;20055;-82
2021/04/14 09:16:55;;;;;;;2.92;0.60;;;10.40;80.00;;;;;;5001563;28;20425;-82
2021/04/14 09:19:35;;;;;;;1.98;0.50;;;10.10;81.20;;;;;;5018370;28;20053;-82
2021/04/14 09:22:21;;;;;;;1.80;0.43;;;9.90;82.00;;;;;;5024183;28;20050;-82
2021/04/14 09:25:09;;;;;;;3.00;0.65;;;9.90;85.00;;;;;;5003987;28;20501;-82
2021/04/14 09:27:36;;;;;;;3.35;0.60;;;10.20;87.20;;;;;;5019877;28;20060;-82
2021/04/14 09:30:11;;;;;;;2.53;0.50;;;10.70;84.50;;;;;;5016779;28;20054;-82
2021/04/14 09:32:52;;;;;;;3.65;0.75;;;11.00;79.20;;;;;;5018084;28;20054;-82
2021/04/14 09:35:27;;;;;;;2.53;0.50;;;11.10;78.90;;;;;;5003579;28;20065;-82
2021/04/14 09:38:09;;;;;;;4.25;0.50;;;11.00;73.70;;;;;;5003867;28;20482;-82
2021/04/14 09:40:37;;;;;;;2.88;0.50;;;10.90;76.00;;;;;;5004686;28;20106;-82
2021/04/14 09:43:25;;;;;;;6.40;0.50;;;10.80;77.80;;;;;;4993866;28;21136;-82
2021/04/14 09:46:00;;;;;;;2.85;0.55;;;10.90;74.70;;;;;;5021119;28;20073;-83
2021/04/14 09:48:42;;;;;;;4.60;1.00;;;10.80;73.70;;;;;;4994154;28;20053;-82
2021/04/14 09:51:33;;;;;;;3.20;0.98;;;10.70;75.40;;;;;;5010887;28;20592;-82
2021/04/14 09:54:17;;;;;;;6.60;1.23;;;10.70;76.30;;;;;;4996019;28;20153;-82
2021/04/14 09:56:52;;;;;;;3.22;0.70;;;11.00;77.30;;;;;;5002183;28;20118;-82
2021/04/14 09:59:36;;;;;;;2.53;0.63;;;11.50;75.80;;;;;;5000651;28;20088;-82
2021/04/14 10:02:08;;;;;;;1.92;0.70;;;11.90;74.30;;;;;;5001891;28;20053;-82
2021/04/14 10:04:36;;;;;;;5.47;0.80;;;12.30;71.00;;;;;;5004826;28;20065;-82
2021/04/14 10:07:17;;;;;;;1.25;0.52;;;12.40;69.40;;;;;;4981001;28;20058;-82
2021/04/14 10:09:43;;;;;;;4.28;0.90;;;12.20;69.20;;;;;;4996548;28;20052;-83
2021/04/14 10:12:16;;;;;;;3.20;0.57;;;11.90;67.90;;;;;;4998693;28;20054;-82
2021/04/14 10:14:49;;;;;;;3.03;0.63;;;11.40;69.90;;;;;;4996889;28;20050;-83
2021/04/14 10:17:19;;;;;;;4.88;0.50;;;10.90;71.20;;;;;;4995152;28;20100;-81
2021/04/14 10:19:52;;;;;;;3.28;0.90;;;10.60;68.70;;;;;;5013265;28;20744;-82
2021/04/14 10:22:26;;;;;;;1.65;0.50;;;10.50;71.20;;;;;;5013826;28;20113;-83
2021/04/14 10:25:22;;;;;;;2.67;0.75;;;10.40;70.40;;;;;;5019908;28;20484;-82
2021/04/14 10:28:14;;;;;;;4.45;1.50;;;10.40;71.90;;;;;;5017734;28;20053;-82
2021/04/14 10:30:44;;;;;;;8.32;1.02;;;10.40;73.50;;;;;;5017099;28;20057;-82
2021/04/14 10:33:19;;;;;;;7.00;1.40;;;10.50;74.40;;;;;;5016151;28;20046;-82
2021/04/14 10:35:47;;;;;;;7.45;0.70;;;10.50;74.60;;;;;;4998082;28;20057;-82
2021/04/14 10:38:25;;;;;;;2.85;0.88;;;10.50;73.10;;;;;;5010154;28;20049;-82
2021/04/14 10:40:51;;;;;;;4.80;1.05;;;10.50;74.10;;;;;;4997418;28;20054;-82
2021/04/14 10:43:21;;;;;;;3.22;0.63;;;10.60;74.20;;;;;;5007463;28;20057;-82
2021/04/14 10:46:03;;;;;;;2.33;0.40;;;10.80;70.30;;;;;;5001303;28;20164;-82
2021/04/14 10:48:31;;;;;;;7.25;0.93;;;10.70;66.90;;;;;;4996202;28;20113;-82
2021/04/14 10:51:22;;;;;;;3.55;0.85;;;10.90;68.40;;;;;;5014920;28;21892;-83
2021/04/14 10:53:51;;;;;;;2.65;0.52;;;11.30;71.40;;;;;;5002823;28;20054;-82
2021/04/14 10:56:29;;;;;;;3.50;0.63;;;11.80;67.90;;;;;;5021272;28;20409;-82
2021/04/14 10:58:57;;;;;;;5.88;0.60;;;12.20;67.60;;;;;;5007712;28;20604;-82
2021/04/14 11:01:35;;;;;;;3.83;1.00;;;12.60;71.20;;;;;;5002582;28;20050;-83
2021/04/14 11:04:11;;;;;;;2.80;0.85;;;13.00;71.00;;;;;;5015408;28;20046;-82
2021/04/14 11:06:39;;;;;;;3.15;0.75;;;13.20;67.60;;;;;;5000264;28;20085;-83
2021/04/14 11:09:07;;;;;;;1.58;0.60;;;13.40;66.80;;;;;;5002390;28;20124;-82
2021/04/14 11:11:35;;;;;;;3.00;0.70;;;13.50;68.20;;;;;;4999927;28;20052;-82
2021/04/14 11:14:04;;;;;;;1.23;0.52;;;13.70;68.50;;;;;;5016240;28;20046;-82
2021/04/14 11:16:32;;;;;;;3.10;0.80;;;13.80;68.00;;;;;;5006014;28;20590;-82
2021/04/14 11:18:58;;;;;;;2.10;0.80;;;13.90;66.70;;;;;;5015784;28;20449;-82
2021/04/14 11:21:30;;;;;;;4.55;1.10;;;14.10;66.30;;;;;;5003025;28;20052;-82
2021/04/14 11:24:16;;;;;;;4.55;0.88;;;14.30;65.30;;;;;;4999745;28;20041;-82
2021/04/14 11:26:55;;;;;;;2.95;1.42;;;14.20;66.20;;;;;;5004442;28;20544;-82
2021/04/14 11:29:24;;;;;;;2.35;0.75;;;14.00;65.50;;;;;;5020224;28;20056;-81
2021/04/14 11:31:53;;;;;;;4.32;0.70;;;13.70;65.60;;;;;;5004290;28;20137;-82
2021/04/14 11:34:27;;;;;;;2.67;0.82;;;13.50;66.20;;;;;;5001660;28;20084;-82
2021/04/14 11:37:03;;;;;;;2.33;0.70;;;13.20;66.10;;;;;;5004220;28;20482;-81
2021/04/14 11:39:48;;;;;;;2.75;0.63;;;13.00;66.30;;;;;;5021754;28;20049;-82
2021/04/14 11:42:59;;;;;;;9.15;1.00;;;12.60;68.20;;;;;;5005893;28;20053;-82
2021/04/14 11:45:27;;;;;;;3.38;1.25;;;12.10;71.90;;;;;;5003333;28;20109;-82
2021/04/14 11:47:53;;;;;;;0.82;0.55;;;11.60;75.50;;;;;;5016794;28;20072;-82
2021/04/14 11:50:28;;;;;;;8.07;1.33;;;11.20;78.30;;;;;;5005452;28;20124;-82
2021/04/14 11:52:58;;;;;;;5.32;0.95;;;10.60;82.20;;;;;;5023475;28;20057;-83
2021/04/14 11:55:36;;;;;;;6.55;1.00;;;10.10;90.50;;;;;;5006878;28;20108;-83
2021/04/14 11:58:08;;;;;;;3.00;0.73;;;9.60;94.60;;;;;;5007241;28;20085;-82
2021/04/14 12:00:37;;;;;;;5.28;0.95;;;9.20;95.10;;;;;;5006645;28;20068;-82
2021/04/14 12:03:22;;;;;;;1.05;0.40;;;9.00;97.40;;;;;;5021529;28;20050;-82
2021/04/14 12:05:50;;;;;;;1.70;0.85;;;9.00;99.20;;;;;;5004642;28;20052;-82
2021/04/14 12:08:17;;;;;;;5.60;0.93;;;9.10;99.90;;;;;;5021622;28;20057;-83
2021/04/14 12:10:44;;;;;;;4.10;0.80;;;9.40;97.00;;;;;;5004756;28;20050;-82
2021/04/14 12:13:10;;;;;;;1.42;0.52;;;9.50;99.60;;;;;;5012080;28;20469;-83
2021/04/14 12:15:37;;;;;;;2.85;0.55;;;9.80;96.20;;;;;;5016639;28;20055;-82
2021/04/14 12:18:03;;;;;;;3.15;0.55;;;10.10;96.30;;;;;;5006379;28;20050;-83
2021/04/14 12:20:30;;;;;;;1.58;0.38;;;10.50;95.70;;;;;;5020768;28;20128;-83
2021/04/14 12:22:56;;;;;;;2.78;0.50;;;11.00;93.30;;;;;;5009322;28;20076;-83
2021/04/14 12:25:24;;;;;;;0.65;0.20;;;11.50;90.70;;;;;;5023670;28;20077;-83
2021/04/14 12:27:50;;;;;;;4.07;0.50;;;11.80;88.60;;;;;;5020536;28;20046;-83
2021/04/14 12:30:20;;;;;;;1.90;0.43;;;12.20;85.20;;;;;;5004448;28;20105;-83
2021/04/14 12:32:48;;;;;;;2.13;0.57;;;12.70;85.20;;;;;;5012117;28;20057;-83
2021/04/14 12:35:15;;;;;;;2.42;0.55;;;14.00;82.00;;;;;;5021355;28;20103;-83
2021/04/14 12:37:41;;;;;;;1.48;0.52;;;15.30;70.30;;;;;;5006944;28;20486;-83
2021/04/14 12:40:10;;;;;;;2.95;0.60;;;16.40;67.80;;;;;;5001777;28;20057;-83
2021/04/14 12:42:51;;;;;;;6.05;1.00;;;17.50;62.60;;;;;;5019305;28;20488;-83
2021/04/14 12:45:49;;;;;;;3.90;0.98;;;18.50;56.10;;;;;;5001160;28;20053;-83
2021/04/14 12:48:21;;;;;;;5.40;1.40;;;19.00;53.20;;;;;;5018088;28;20163;-81
2021/04/14 12:51:15;;;;;;;5.13;1.23;;;18.70;54.20;;;;;;5003164;28;20076;-82
2021/04/14 12:53:49;;;;;;;5.07;0.80;;;18.20;53.00;;;;;;4998791;28;20100;-81
2021/04/14 12:56:24;;;;;;;5.82;0.88;;;18.00;54.90;;;;;;4995012;28;20136;-81
2021/04/14 12:58:51;;;;;;;2.28;0.75;;;18.60;53.30;;;;;;4999598;28;20053;-82
2021/04/14 13:01:18;;;;;;;4.53;0.70;;;19.20;52.70;;;;;;5017212;28;20124;-82
2021/04/14 13:03:55;;;;;;;3.03;0.70;;;20.20;48.70;;;;;;5003789;28;20057;-82
2021/04/14 13:06:43;;;;;;;3.25;0.70;;;20.90;47.20;;;;;;5002124;28;20138;-82